Flight Track Log - Related Links

Times and Time Zones

All times are in EST time to prevent confusion due to time zone crossing. See the MRA690 flight status page for this flight to view local times or setup timezone preferences in your user account.

Time Position Orientation Groundspeed Altitude Reporting Facility
EST Latitude Longitude Course Direction KTS MPH feet Rate Location/Type
Mon 08:20:33 PM 48.1336 -123.5475 61° Northeast 114 131 1,600  Level Seattle Center
Mon 08:21:52 PM 48.1536 -123.4933 61° Northeast 139 160 2,800 950 Climbing Seattle Center
Mon 08:22:52 PM 48.1517 -123.4414 93° East 124 143 3,800 992 Climbing Seattle Center
Mon 08:23:53 PM 48.1439 -123.3925 103° East 123 142 4,800 1,041 Climbing Seattle Center
Mon 08:24:53 PM 48.1386 -123.3356 98° East 134 154 5,900 940 Climbing Seattle Center
Mon 08:25:16 PM 48.1369 -123.3233 102° East 135 155 6,100 1,256 Climbing Seattle Center
Mon 08:25:36 PM 48.1350 -123.2944 96° East 140 161 6,800 885 Climbing Seattle Center
Mon 08:26:17 PM 48.1294 -123.2531 101° East 142 163 7,000 200 Climbing Seattle Center
Mon 08:26:36 PM 48.1256 -123.2300 104° East 170 196 7,000  Level Seattle Center
Mon 08:27:18 PM 48.1136 -123.1828 111° Southeast 192 221 7,000  Level Seattle Center
Mon 08:27:43 PM 48.1056 -123.1417 106° East 198 228 7,000  Level Seattle Center
Mon 08:28:19 PM 48.0978 -123.1081 109° East 187 215 7,000  Level Seattle Center
Mon 08:28:44 PM 48.0897 -123.0708 108° East 190 219 7,000  Level Seattle Center
Mon 08:29:20 PM 48.0833 -123.0331 104° East 187 215 7,000  Level Seattle Center
Mon 08:29:44 PM 48.0778 -122.9978 103° East 182 209 7,000 98 Level Seattle Center
Mon 08:30:21 PM 48.0725 -122.9603 102° East 180 207 7,100  Climbing Seattle Center
Mon 08:30:51 PM 48.0658 -122.9150 102° East 176 203 7,000 -98 Descending Seattle Center
Mon 08:31:22 PM 48.0597 -122.8897 110° East 177 204 7,000 154 Level Seattle Center
Mon 08:31:30 PM 48.0569 -122.8714 103° East 175 201 7,100 107 Climbing Seattle Center
Mon 08:32:18 PM 48.0325 -122.8350 135° Southeast 159 183 7,100 -113 Level Seattle Center
Mon 08:32:23 PM 48.0350 -122.8361 343° North 161 185 7,000  Descending Seattle Center
Mon 08:33:19 PM 47.9947 -122.7994 149° Southeast 156 180 7,100  Climbing Seattle Center
Mon 08:33:23 PM 47.9903 -122.7958 151° Southeast 158 182 7,000 -554 Descending Seattle Center
Mon 08:34:24 PM 47.9489 -122.7603 150° Southeast 171 197 6,500 -407 Descending Seattle Center
Mon 08:35:21 PM 47.9064 -122.7289 154° Southeast 179 206 6,200 -393 Descending Seattle Center
Mon 08:35:25 PM 47.9044 -122.7272 150° Southeast 177 204 6,100 -111 Descending Seattle Center
Mon 08:36:15 PM 47.8683 -122.7003 153° Southeast 173 199 6,100 -197 Level Seattle Center
Mon 08:36:26 PM 47.8619 -122.6958 155° Southeast 170 196 5,900 -787 Descending Seattle Center
Mon 08:37:16 PM 47.8256 -122.6708 155° Southeast 171 197 5,300 -787 Descending Seattle Center
Mon 08:37:27 PM 47.8189 -122.6644 147° Southeast 172 198 5,100 -1,000 Descending Seattle Center
Mon 08:38:28 PM 47.7731 -122.6542 171° South 164 189 4,100 -811 Descending Seattle Center
Mon 08:39:18 PM 47.7350 -122.6547 181° South 156 180 3,600 -787 Descending Seattle Center
Mon 08:39:29 PM 47.7289 -122.6506 155° Southeast 158 182 3,300 -1,000 Descending Seattle Center
Mon 08:40:18 PM 47.6900 -122.6528 182° South 162 186 2,600 -900 Descending Seattle Center
Mon 08:40:29 PM 47.6803 -122.6514 175° South 162 186 2,400 -90 Descending Seattle Center
Mon 08:41:25 PM 47.6406 -122.6503 179° South 153 176 2,500  Climbing Seattle Center
Mon 08:41:30 PM 47.6378 -122.6472 143° Southeast 155 178 2,400 -90 Descending Seattle Center
Mon 08:42:32 PM 47.6008 -122.6478 181° South 149 171 2,400  Level Seattle Center

Login

Don't have an account? Register now (free) for customized features, flight alerts, and more!